Time;durP1;ratioP1;P1;durP2;ratioP2;P2;SDS_P1;SDS_P2;PMS_P1;PMS_P2;Temp;Humidity;BMP_temperature;BMP_pressure;BME280_temperature;BME280_humidity;BME280_pressure;Samples;Min_cycle;Max_cycle;Signal;HPM_P1;HPM_P2
2021/07/26 00:02:03;;;;;;;7.83;7.10;;;20.10;99.90;;;;;;4975822;28;20189;-63
2021/07/26 00:04:29;;;;;;;8.00;7.30;;;20.10;99.90;;;;;;4976666;28;20208;-63
2021/07/26 00:06:55;;;;;;;8.50;7.60;;;20.00;99.90;;;;;;4976170;28;20192;-63
2021/07/26 00:09:21;;;;;;;8.30;7.50;;;20.00;99.90;;;;;;4975681;28;20213;-63
2021/07/26 00:11:46;;;;;;;7.97;7.23;;;20.10;99.90;;;;;;4975611;28;20174;-64
2021/07/26 00:14:12;;;;;;;7.60;6.80;;;20.20;99.90;;;;;;4976137;28;20186;-62
2021/07/26 00:16:37;;;;;;;6.90;6.30;;;20.20;99.90;;;;;;4976415;28;20186;-63
2021/07/26 00:19:03;;;;;;;7.77;6.67;;;20.30;99.90;;;;;;4975798;28;20257;-61
2021/07/26 00:21:28;;;;;;;8.57;7.67;;;20.20;99.90;;;;;;4975467;28;20224;-63
2021/07/26 00:23:54;;;;;;;8.43;7.63;;;20.20;99.90;;;;;;4975568;28;20205;-63
2021/07/26 00:26:19;;;;;;;7.43;6.70;;;20.20;99.90;;;;;;4975687;28;20178;-63
2021/07/26 00:28:45;;;;;;;8.77;7.30;;;20.50;99.90;;;;;;4976132;28;20170;-64
2021/07/26 00:31:10;;;;;;;7.13;6.53;;;20.20;99.90;;;;;;4975172;28;20297;-62
2021/07/26 00:34:19;;;;;;;7.23;6.53;;;20.30;99.90;;;;;;4975408;28;20310;-62
2021/07/26 00:37:05;;;;;;;7.83;7.03;;;20.30;99.90;;;;;;4975760;28;20178;-62
2021/07/26 00:39:35;;;;;;;7.67;6.97;;;20.30;99.90;;;;;;4975836;28;20194;-62
2021/07/26 00:42:02;;;;;;;8.73;7.83;;;20.20;99.90;;;;;;4975468;28;20197;-63
2021/07/26 00:44:30;;;;;;;13.13;10.83;;;20.10;99.90;;;;;;4975094;28;20197;-63
2021/07/26 00:46:56;;;;;;;13.00;11.33;;;20.00;99.90;;;;;;4975446;28;20193;-63
2021/07/26 00:49:24;;;;;;;12.80;9.83;;;19.80;99.90;;;;;;4975641;28;20531;-63
2021/07/26 00:51:52;;;;;;;14.10;11.23;;;19.80;99.90;;;;;;4975083;28;20261;-63
2021/07/26 00:54:25;;;;;;;10.53;8.17;;;19.80;99.90;;;;;;4975129;28;20190;-62
2021/07/26 00:56:53;;;;;;;20.83;11.87;;;19.90;99.90;;;;;;4975202;28;20167;-63
2021/07/26 00:59:19;;;;;;;32.03;15.23;;;19.90;99.90;;;;;;4974927;28;20193;-63
2021/07/26 01:01:45;;;;;;;28.83;15.73;;;19.90;99.90;;;;;;4975343;28;20178;-63
2021/07/26 01:04:11;;;;;;;34.27;15.37;;;19.90;99.90;;;;;;4975174;28;20206;-62
2021/07/26 01:06:37;;;;;;;21.90;13.43;;;19.90;99.90;;;;;;4975656;28;20512;-63
2021/07/26 01:09:03;;;;;;;18.40;12.03;;;19.90;99.90;;;;;;4974864;28;20198;-63
2021/07/26 01:11:29;;;;;;;24.30;15.13;;;19.70;99.90;;;;;;4974631;28;20178;-62
2021/07/26 01:13:55;;;;;;;23.70;15.07;;;19.60;99.90;;;;;;4975437;28;20233;-61
2021/07/26 01:16:21;;;;;;;34.47;17.80;;;19.50;99.90;;;;;;4974833;28;20630;-63
2021/07/26 01:18:46;;;;;;;16.13;13.23;;;19.50;99.90;;;;;;4975523;28;20181;-62
2021/07/26 01:21:14;;;;;;;23.37;16.90;;;19.50;99.90;;;;;;4975116;28;20601;-63
2021/07/26 01:23:45;;;;;;;23.00;16.17;;;19.60;99.90;;;;;;4975245;28;20201;-62
2021/07/26 01:26:12;;;;;;;24.57;15.60;;;19.70;99.90;;;;;;4974891;28;20194;-63
2021/07/26 01:28:41;;;;;;;37.77;18.50;;;19.70;99.90;;;;;;4974990;28;20206;-63
2021/07/26 01:31:07;;;;;;;18.10;14.50;;;19.60;99.90;;;;;;4974924;28;20256;-63
2021/07/26 01:33:33;;;;;;;18.93;14.67;;;19.70;99.90;;;;;;4974707;28;20618;-63
2021/07/26 01:36:00;;;;;;;25.97;18.53;;;19.90;99.90;;;;;;4974857;28;20175;-63
2021/07/26 01:38:25;;;;;;;18.93;14.33;;;20.00;99.90;;;;;;4975313;28;20182;-62
2021/07/26 01:40:55;;;;;;;28.13;18.13;;;20.10;99.90;;;;;;4974997;28;20189;-62
2021/07/26 01:43:24;;;;;;;17.43;15.07;;;20.10;99.90;;;;;;4974471;28;20201;-62
2021/07/26 01:46:16;;;;;;;16.40;13.67;;;20.20;99.90;;;;;;4974565;28;20174;-63
2021/07/26 01:48:48;;;;;;;26.70;17.23;;;20.20;99.90;;;;;;4974708;28;20206;-63
2021/07/26 01:51:29;;;;;;;27.30;17.80;;;20.20;99.90;;;;;;4974661;28;20217;-63
2021/07/26 01:53:55;;;;;;;23.60;15.23;;;20.20;99.90;;;;;;4992342;28;20248;-63
2021/07/26 01:56:20;;;;;;;26.60;18.37;;;20.10;99.90;;;;;;4994416;28;20186;-62
2021/07/26 01:58:46;;;;;;;22.07;16.23;;;20.00;99.90;;;;;;4993923;28;20184;-62
2021/07/26 02:01:11;;;;;;;33.73;18.90;;;20.00;99.90;;;;;;4993649;28;20184;-62
2021/07/26 02:03:37;;;;;;;16.57;14.60;;;20.00;99.90;;;;;;4993860;28;20724;-62
2021/07/26 02:06:02;;;;;;;18.83;15.23;;;20.00;99.90;;;;;;4994071;28;20185;-62
2021/07/26 02:08:28;;;;;;;35.90;17.10;;;20.00;99.90;;;;;;4994065;28;20229;-63
2021/07/26 02:10:53;;;;;;;18.50;15.17;;;20.60;99.90;;;;;;4993830;28;20292;-63
2021/07/26 02:13:19;;;;;;;17.63;14.87;;;20.10;99.90;;;;;;4993672;28;20600;-62
2021/07/26 02:15:44;;;;;;;27.33;16.47;;;20.10;99.90;;;;;;4994033;28;20550;-63
2021/07/26 02:18:10;;;;;;;20.27;15.87;;;20.20;99.90;;;;;;4993864;28;20178;-63
2021/07/26 02:20:35;;;;;;;20.50;17.47;;;20.20;99.90;;;;;;4993778;28;20190;-62
2021/07/26 02:23:01;;;;;;;18.93;15.87;;;20.30;99.90;;;;;;4995797;28;20577;-62
2021/07/26 02:25:26;;;;;;;16.63;14.47;;;20.40;99.90;;;;;;4997329;28;20201;-62
2021/07/26 02:27:52;;;;;;;14.77;13.17;;;20.30;99.90;;;;;;4997844;28;20182;-63
2021/07/26 02:30:18;;;;;;;15.60;13.97;;;20.20;99.90;;;;;;4997048;28;20249;-62
2021/07/26 02:32:43;;;;;;;15.47;13.43;;;20.30;99.90;;;;;;4996943;28;20240;-62
2021/07/26 02:35:09;;;;;;;14.50;13.00;;;20.40;99.90;;;;;;4996965;28;20178;-63
2021/07/26 02:37:35;;;;;;;14.77;13.17;;;20.40;99.90;;;;;;4997157;28;20200;-63
2021/07/26 02:40:01;;;;;;;15.70;13.90;;;20.50;99.90;;;;;;4997637;28;20181;-63
2021/07/26 02:42:26;;;;;;;17.27;14.27;;;20.50;99.90;;;;;;4997232;28;20181;-62
2021/07/26 02:44:52;;;;;;;15.37;13.80;;;20.60;99.90;;;;;;4996861;28;20204;-63
2021/07/26 02:47:17;;;;;;;16.77;14.30;;;20.60;99.90;;;;;;4996817;28;20191;-63
2021/07/26 02:49:43;;;;;;;15.87;14.37;;;20.60;99.90;;;;;;4996786;28;20203;-62
2021/07/26 02:52:08;;;;;;;14.57;12.70;;;20.50;99.90;;;;;;4997228;28;20177;-62
2021/07/26 02:54:34;;;;;;;13.70;12.20;;;20.20;99.90;;;;;;4996884;28;20235;-61
2021/07/26 02:57:00;;;;;;;12.93;11.63;;;20.00;99.90;;;;;;4996717;28;20572;-62
2021/07/26 02:59:25;;;;;;;12.43;11.23;;;20.00;99.90;;;;;;4996548;28;20656;-63
2021/07/26 03:01:51;;;;;;;13.03;11.73;;;20.00;99.90;;;;;;4996503;28;20184;-62
2021/07/26 03:04:20;;;;;;;11.43;10.30;;;20.10;99.90;;;;;;4996509;28;20189;-63
2021/07/26 03:06:46;;;;;;;13.37;12.07;;;20.20;99.90;;;;;;4996502;28;20507;-60
2021/07/26 03:09:11;;;;;;;11.23;10.23;;;20.30;99.90;;;;;;4996329;28;20274;-63
2021/07/26 03:11:37;;;;;;;11.23;10.13;;;20.40;99.90;;;;;;4996252;28;20249;-62
2021/07/26 03:14:04;;;;;;;12.00;10.70;;;20.30;99.90;;;;;;4996586;28;20527;-63
2021/07/26 03:16:29;;;;;;;12.87;11.60;;;20.40;99.90;;;;;;4996155;28;20173;-63
2021/07/26 03:18:55;;;;;;;11.90;10.70;;;20.40;99.90;;;;;;4996881;28;20261;-64
2021/07/26 03:21:21;;;;;;;13.10;11.77;;;20.40;99.90;;;;;;4996006;28;20174;-62
2021/07/26 03:23:46;;;;;;;12.83;11.63;;;20.40;99.90;;;;;;4996200;28;20661;-63
2021/07/26 03:26:12;;;;;;;12.60;10.70;;;20.40;99.90;;;;;;4996847;28;20333;-63
2021/07/26 03:28:38;;;;;;;12.90;10.80;;;20.40;99.90;;;;;;4996359;28;20177;-63
2021/07/26 03:31:04;;;;;;;11.43;10.23;;;20.40;99.90;;;;;;4996065;28;20198;-63
2021/07/26 03:33:29;;;;;;;12.73;11.53;;;20.40;99.90;;;;;;4995839;28;20247;-62
2021/07/26 03:35:55;;;;;;;13.13;11.93;;;20.40;99.90;;;;;;4995981;28;20169;-63
2021/07/26 03:38:23;;;;;;;17.93;12.00;;;20.30;99.90;;;;;;4995989;28;20170;-63
2021/07/26 03:40:49;;;;;;;13.30;12.07;;;20.10;99.90;;;;;;4995942;28;20270;-63
2021/07/26 03:43:15;;;;;;;13.53;12.17;;;20.10;99.90;;;;;;4995694;28;20320;-61
2021/07/26 03:45:41;;;;;;;12.00;10.90;;;20.20;99.90;;;;;;4995650;28;20537;-62
2021/07/26 03:48:07;;;;;;;14.87;13.23;;;20.30;99.90;;;;;;4995633;28;20704;-62
2021/07/26 03:50:32;;;;;;;15.13;13.63;;;20.30;99.90;;;;;;4995589;28;20696;-62
2021/07/26 03:52:58;;;;;;;15.60;14.00;;;20.30;99.90;;;;;;4995370;28;20281;-63
2021/07/26 03:55:30;;;;;;;16.80;15.10;;;20.20;99.90;;;;;;4995553;28;20224;-63
2021/07/26 03:57:55;;;;;;;16.37;14.47;;;20.30;99.90;;;;;;4995597;28;20164;-63
2021/07/26 04:00:24;;;;;;;48.93;18.20;;;20.30;99.90;;;;;;4995562;28;20506;-63
2021/07/26 04:06:23;;;;;;;15.23;13.73;;;20.00;99.90;;;;;;4995794;28;20209;-62
2021/07/26 04:08:27;;;;;;;94.47;17.40;;;19.90;99.90;;;;;;4988303;28;20235;-63
2021/07/26 04:11:01;;;;;;;31.07;15.53;;;19.90;99.90;;;;;;4995379;28;20287;-63
2021/07/26 04:13:27;;;;;;;14.30;12.90;;;19.90;99.90;;;;;;4995067;28;20664;-63
2021/07/26 04:15:52;;;;;;;14.20;12.80;;;19.90;99.90;;;;;;4995183;28;20236;-62
2021/07/26 04:18:18;;;;;;;13.47;12.10;;;20.00;99.90;;;;;;4995623;28;20173;-63
2021/07/26 04:20:43;;;;;;;12.10;10.93;;;20.20;99.90;;;;;;4995125;28;20178;-63
2021/07/26 04:23:10;;;;;;;12.67;11.30;;;20.30;99.90;;;;;;4995224;28;20200;-63
2021/07/26 04:25:36;;;;;;;14.03;12.63;;;20.40;99.90;;;;;;4995332;28;20181;-63
2021/07/26 04:28:02;;;;;;;14.53;13.03;;;20.50;99.90;;;;;;4995201;28;20177;-62
2021/07/26 04:30:27;;;;;;;15.00;13.50;;;20.40;99.90;;;;;;4995139;28;20600;-62
2021/07/26 04:32:53;;;;;;;17.10;14.73;;;20.40;99.90;;;;;;4994684;28;20235;-63
2021/07/26 04:35:18;;;;;;;29.77;17.27;;;20.40;99.90;;;;;;4995768;28;20355;-63
2021/07/26 04:37:44;;;;;;;43.13;19.57;;;20.40;99.90;;;;;;4998449;28;20185;-62
2021/07/26 04:40:11;;;;;;;23.07;16.43;;;20.40;99.90;;;;;;4995309;28;20177;-63
2021/07/26 04:42:37;;;;;;;17.37;15.47;;;20.30;99.90;;;;;;4994664;28;20223;-63
2021/07/26 04:45:05;;;;;;;21.90;15.43;;;20.50;99.90;;;;;;4994173;28;20189;-63
2021/07/26 04:47:30;;;;;;;16.43;14.70;;;20.60;99.90;;;;;;4994648;28;20181;-63
2021/07/26 04:49:56;;;;;;;19.13;16.23;;;20.70;99.90;;;;;;4994848;28;20219;-62
2021/07/26 04:52:21;;;;;;;18.70;16.67;;;20.80;99.90;;;;;;4994425;28;20214;-63
2021/07/26 04:54:47;;;;;;;33.77;19.20;;;20.90;99.90;;;;;;4994974;28;20232;-63
2021/07/26 04:57:12;;;;;;;20.53;17.20;;;20.90;99.90;;;;;;4994966;28;20173;-63
2021/07/26 04:59:38;;;;;;;24.23;17.27;;;20.90;99.90;;;;;;4994316;28;20184;-64
2021/07/26 05:02:03;;;;;;;38.77;20.30;;;20.80;99.90;;;;;;4994345;28;20177;-63
2021/07/26 05:04:29;;;;;;;20.30;17.67;;;20.70;99.90;;;;;;4994383;28;20193;-63
2021/07/26 05:07:02;;;;;;;28.63;18.20;;;20.70;99.90;;;;;;4997291;28;20220;-63
2021/07/26 05:09:28;;;;;;;20.00;17.90;;;20.60;99.90;;;;;;4997217;28;20287;-63
2021/07/26 05:12:05;;;;;;;20.63;18.43;;;20.70;99.90;;;;;;5001003;28;20180;-64
2021/07/26 05:14:31;;;;;;;19.67;17.50;;;20.80;99.90;;;;;;5003553;28;20206;-63
2021/07/26 05:16:57;;;;;;;22.63;18.23;;;20.90;99.90;;;;;;5004893;28;20180;-63
2021/07/26 05:19:23;;;;;;;19.73;17.63;;;21.00;99.90;;;;;;5002261;28;20181;-63
2021/07/26 05:21:48;;;;;;;20.57;17.73;;;21.00;99.90;;;;;;4997152;28;20177;-62
2021/07/26 05:24:14;;;;;;;23.43;19.77;;;21.00;99.90;;;;;;4994169;28;20197;-61
2021/07/26 05:26:39;;;;;;;22.50;18.97;;;21.00;99.90;;;;;;4993986;28;20177;-61
2021/07/26 05:29:05;;;;;;;21.83;19.10;;;20.80;99.90;;;;;;4991609;28;20554;-62
2021/07/26 05:31:30;;;;;;;21.80;18.60;;;21.30;99.90;;;;;;4992287;28;20212;-63
2021/07/26 05:33:56;;;;;;;20.87;18.20;;;21.00;99.90;;;;;;4994074;28;20252;-62
2021/07/26 05:36:24;;;;;;;20.50;17.70;;;21.10;99.90;;;;;;4993783;28;20537;-63
2021/07/26 05:38:50;;;;;;;21.67;18.47;;;21.00;99.90;;;;;;5000623;28;20177;-62
2021/07/26 05:41:17;;;;;;;21.23;18.43;;;21.00;99.90;;;;;;5003978;28;20649;-63
2021/07/26 05:43:42;;;;;;;17.93;16.03;;;21.10;99.90;;;;;;4992739;28;20201;-63
2021/07/26 05:46:08;;;;;;;19.53;17.43;;;21.00;99.90;;;;;;4992923;28;20232;-63
2021/07/26 05:48:33;;;;;;;20.87;18.70;;;21.00;99.90;;;;;;4992526;28;20558;-63
2021/07/26 05:50:59;;;;;;;18.70;16.80;;;21.00;99.90;;;;;;4993856;28;20205;-64
2021/07/26 05:53:24;;;;;;;17.02;15.32;;;21.10;99.90;;;;;;4994183;28;20549;-63
2021/07/26 05:55:50;;;;;;;17.17;15.37;;;21.20;99.90;;;;;;4994327;28;20173;-63
2021/07/26 05:58:15;;;;;;;21.70;18.93;;;21.40;99.90;;;;;;4997180;28;20165;-63
2021/07/26 06:00:43;;;;;;;18.20;16.30;;;21.40;99.90;;;;;;4996755;28;20208;-64
2021/07/26 06:03:09;;;;;;;24.98;20.67;;;21.40;99.90;;;;;;4997574;28;20209;-63
2021/07/26 06:05:36;;;;;;;19.00;17.10;;;21.30;99.90;;;;;;4997632;28;20191;-64
2021/07/26 06:08:02;;;;;;;18.88;16.98;;;21.30;99.90;;;;;;4997466;28;20191;-63
2021/07/26 06:10:27;;;;;;;19.45;17.30;;;21.50;99.90;;;;;;4984827;28;20205;-63
2021/07/26 06:12:53;;;;;;;19.55;16.77;;;21.40;99.90;;;;;;4993494;28;20253;-63
2021/07/26 06:15:19;;;;;;;18.42;16.48;;;21.40;99.90;;;;;;5017261;28;20181;-64
2021/07/26 06:17:45;;;;;;;21.98;19.30;;;21.30;99.90;;;;;;5002885;28;20252;-63
2021/07/26 06:20:12;;;;;;;19.65;17.65;;;21.30;99.90;;;;;;4989343;28;20195;-64
2021/07/26 06:22:37;;;;;;;20.45;18.30;;;21.20;99.90;;;;;;4997187;28;20215;-64
2021/07/26 06:25:09;;;;;;;19.45;17.35;;;21.20;99.90;;;;;;4995161;28;20201;-63
2021/07/26 06:27:37;;;;;;;19.48;17.02;;;21.20;99.90;;;;;;4980488;28;20209;-63
2021/07/26 06:30:03;;;;;;;19.15;16.90;;;21.30;99.90;;;;;;4993868;28;20272;-63
2021/07/26 06:32:31;;;;;;;18.25;16.35;;;21.10;99.90;;;;;;4989162;28;20202;-63
2021/07/26 06:34:58;;;;;;;18.45;16.55;;;21.20;99.90;;;;;;5004815;28;20223;-64
2021/07/26 06:37:24;;;;;;;19.08;17.15;;;21.50;99.90;;;;;;4979663;28;20188;-64
2021/07/26 06:39:49;;;;;;;20.27;18.05;;;21.50;99.90;;;;;;4982468;28;20181;-63
2021/07/26 06:42:15;;;;;;;19.05;17.08;;;21.80;99.90;;;;;;4993938;28;20195;-64
2021/07/26 06:44:41;;;;;;;18.38;16.38;;;21.90;99.90;;;;;;4987741;28;20179;-63
2021/07/26 06:47:06;;;;;;;19.23;17.13;;;21.80;99.90;;;;;;4984801;28;20209;-64
2021/07/26 06:49:32;;;;;;;18.55;16.70;;;21.70;99.90;;;;;;4976518;28;20199;-63
2021/07/26 06:51:58;;;;;;;17.65;15.98;;;21.50;99.90;;;;;;4976975;28;20169;-64
2021/07/26 06:54:24;;;;;;;16.30;14.80;;;21.70;99.90;;;;;;4977240;28;20719;-64
2021/07/26 06:56:49;;;;;;;16.77;15.00;;;22.10;99.90;;;;;;4977174;28;20231;-65
2021/07/26 06:59:15;;;;;;;19.08;17.17;;;22.50;99.90;;;;;;4977313;28;20182;-64
2021/07/26 07:01:42;;;;;;;17.00;14.48;;;22.60;99.90;;;;;;4976921;28;20204;-64
2021/07/26 07:04:07;;;;;;;16.58;14.93;;;22.60;99.90;;;;;;4977539;28;20534;-64
2021/07/26 07:06:33;;;;;;;17.83;16.05;;;22.80;99.90;;;;;;4977132;28;20626;-64
2021/07/26 07:08:58;;;;;;;19.13;17.15;;;23.00;99.90;;;;;;4976579;28;20193;-64
2021/07/26 07:11:24;;;;;;;16.67;15.07;;;23.10;99.90;;;;;;4977417;28;20213;-64
2021/07/26 07:13:51;;;;;;;16.42;14.82;;;23.20;99.90;;;;;;4977515;28;20657;-64
2021/07/26 07:16:22;;;;;;;16.92;15.30;;;23.10;99.90;;;;;;4976895;28;20178;-64
2021/07/26 07:18:49;;;;;;;15.70;14.20;;;23.20;99.90;;;;;;4977072;28;20174;-65
2021/07/26 07:21:33;;;;;;;16.23;14.70;;;23.40;99.90;;;;;;4976939;28;20744;-65
2021/07/26 07:24:00;;;;;;;15.25;13.85;;;23.40;99.90;;;;;;4977018;28;20208;-64
2021/07/26 07:26:26;;;;;;;16.80;15.25;;;23.60;99.90;;;;;;4977243;28;20213;-64
2021/07/26 07:28:52;;;;;;;15.18;13.77;;;23.80;99.90;;;;;;4977033;28;20702;-64
2021/07/26 07:31:23;;;;;;;13.75;12.45;;;23.90;99.90;;;;;;4977175;28;20209;-64
2021/07/26 07:33:50;;;;;;;16.10;14.40;;;24.20;99.90;;;;;;4976704;28;20186;-64
2021/07/26 07:36:15;;;;;;;16.80;15.30;;;23.90;99.90;;;;;;4976942;28;20631;-65
2021/07/26 07:38:41;;;;;;;18.40;16.23;;;23.90;99.90;;;;;;4976800;28;20174;-64
2021/07/26 07:41:06;;;;;;;17.75;15.23;;;23.60;99.90;;;;;;4976283;28;20170;-65
2021/07/26 07:43:32;;;;;;;17.48;15.57;;;23.40;99.90;;;;;;4976594;28;20248;-64
2021/07/26 07:45:59;;;;;;;18.25;16.48;;;23.20;99.90;;;;;;4976654;28;20260;-64
2021/07/26 07:48:25;;;;;;;16.08;14.32;;;23.10;99.90;;;;;;4976953;28;20260;-64
2021/07/26 07:50:55;;;;;;;16.73;15.13;;;23.00;99.90;;;;;;4976257;28;20197;-64
2021/07/26 07:53:21;;;;;;;17.75;16.05;;;22.90;99.90;;;;;;4976227;28;20563;-64
2021/07/26 07:55:48;;;;;;;15.98;14.38;;;22.70;99.90;;;;;;4976513;28;20174;-64
2021/07/26 07:58:13;;;;;;;16.00;14.35;;;22.90;99.90;;;;;;4976229;28;20181;-64
2021/07/26 08:00:39;;;;;;;15.57;13.98;;;23.10;99.90;;;;;;4976631;28;20201;-64
2021/07/26 08:03:04;;;;;;;16.48;14.88;;;23.10;99.90;;;;;;4976429;28;20200;-64
2021/07/26 08:05:31;;;;;;;17.27;15.63;;;23.10;99.90;;;;;;4975230;28;20184;-64
2021/07/26 08:07:56;;;;;;;16.50;15.00;;;23.20;99.90;;;;;;4975933;28;20198;-64
2021/07/26 08:10:22;;;;;;;18.75;16.85;;;23.40;99.90;;;;;;4976125;28;20213;-64
2021/07/26 08:12:48;;;;;;;18.42;16.35;;;23.20;99.90;;;;;;4976087;28;20189;-63
2021/07/26 08:15:14;;;;;;;19.25;17.45;;;23.00;99.90;;;;;;4975851;28;20170;-63
2021/07/26 08:17:47;;;;;;;20.92;18.83;;;22.90;99.90;;;;;;4976196;28;20225;-64
2021/07/26 08:20:17;;;;;;;18.92;17.13;;;23.00;99.90;;;;;;4973789;28;20268;-64
2021/07/26 08:22:44;;;;;;;19.02;17.23;;;23.10;99.90;;;;;;4975537;28;20645;-65
2021/07/26 08:25:12;;;;;;;19.95;17.95;;;23.20;99.90;;;;;;4975832;28;20178;-64
2021/07/26 08:27:55;;;;;;;19.98;17.92;;;23.30;99.90;;;;;;4976359;28;20185;-64
2021/07/26 08:30:23;;;;;;;18.98;17.17;;;23.40;99.90;;;;;;4975948;28;20240;-64
2021/07/26 08:32:49;;;;;;;16.67;15.10;;;23.50;99.90;;;;;;4975360;28;20658;-64
2021/07/26 08:35:15;;;;;;;17.05;15.45;;;23.80;99.90;;;;;;4976449;28;20182;-64
2021/07/26 08:37:41;;;;;;;19.45;17.50;;;24.10;99.90;;;;;;4975831;28;20242;-64
2021/07/26 08:40:07;;;;;;;16.23;14.60;;;24.20;99.90;;;;;;4975693;28;20189;-65
2021/07/26 08:42:33;;;;;;;14.10;12.70;;;24.40;99.90;;;;;;4975172;28;20186;-64
2021/07/26 08:44:58;;;;;;;17.90;16.20;;;24.60;99.90;;;;;;4975407;28;20265;-64
2021/07/26 08:47:27;;;;;;;18.42;16.70;;;24.60;99.90;;;;;;4975521;28;20189;-65
2021/07/26 08:49:57;;;;;;;18.02;16.35;;;24.50;99.90;;;;;;4975276;28;20586;-64
2021/07/26 08:52:26;;;;;;;18.20;16.30;;;24.60;99.90;;;;;;4976449;28;20162;-64
2021/07/26 08:54:54;;;;;;;15.40;14.00;;;24.50;99.90;;;;;;4975298;28;20253;-64
2021/07/26 08:57:20;;;;;;;18.38;16.23;;;24.50;99.90;;;;;;4975176;28;20181;-64
2021/07/26 08:59:46;;;;;;;17.58;15.88;;;24.30;99.90;;;;;;4975995;28;20186;-64
2021/07/26 09:02:12;;;;;;;18.83;16.88;;;24.00;99.90;;;;;;4974118;28;20242;-65
2021/07/26 09:04:38;;;;;;;18.98;17.08;;;23.90;99.90;;;;;;4975304;28;20579;-65
2021/07/26 09:07:07;;;;;;;19.42;17.50;;;23.80;99.90;;;;;;4975154;28;20257;-64
2021/07/26 09:09:47;;;;;;;18.52;16.73;;;24.10;99.90;;;;;;4975436;28;20286;-65
2021/07/26 09:12:28;;;;;;;16.88;15.27;;;24.50;99.90;;;;;;4974761;28;20170;-64
2021/07/26 09:14:53;;;;;;;19.75;17.83;;;24.90;99.90;;;;;;4975519;28;20198;-64
2021/07/26 09:17:19;;;;;;;17.55;15.75;;;25.00;99.90;;;;;;4974279;28;20515;-64
2021/07/26 09:19:56;;;;;;;16.70;14.98;;;25.00;99.90;;;;;;4974848;28;20531;-64
2021/07/26 09:22:33;;;;;;;16.50;14.90;;;25.30;99.90;;;;;;4974702;28;20155;-65
2021/07/26 09:25:20;;;;;;;15.20;13.85;;;25.40;99.90;;;;;;4975102;28;20197;-64
2021/07/26 09:27:58;;;;;;;14.35;13.05;;;25.90;99.90;;;;;;4975200;28;20251;-65
2021/07/26 09:30:25;;;;;;;13.90;12.48;;;26.40;99.90;;;;;;4975179;28;20205;-65
2021/07/26 09:32:50;;;;;;;12.63;11.43;;;26.60;99.90;;;;;;4978504;28;20281;-65
2021/07/26 09:35:16;;;;;;;14.05;12.75;;;26.80;99.90;;;;;;4978870;28;20260;-64
2021/07/26 09:37:42;;;;;;;14.02;12.73;;;26.70;99.90;;;;;;4978768;28;20173;-65
2021/07/26 09:40:22;;;;;;;12.13;11.02;;;26.60;99.90;;;;;;4978820;28;20214;-65
2021/07/26 09:42:48;;;;;;;12.05;11.05;;;26.70;99.90;;;;;;4978972;28;20223;-64
2021/07/26 09:45:24;;;;;;;11.50;10.40;;;27.10;99.90;;;;;;4978693;28;20178;-64
2021/07/26 09:48:10;;;;;;;12.43;11.25;;;27.50;99.90;;;;;;4979317;28;20181;-64
2021/07/26 09:50:38;;;;;;;12.88;10.63;;;27.90;99.90;;;;;;4978741;28;20585;-64
2021/07/26 09:53:11;;;;;;;12.82;11.55;;;28.00;99.90;;;;;;4978672;28;20238;-64
2021/07/26 09:55:38;;;;;;;10.05;9.20;;;27.70;99.90;;;;;;4978374;28;20562;-65
2021/07/26 09:58:05;;;;;;;10.68;9.63;;;27.90;99.90;;;;;;4978366;28;20178;-64
2021/07/26 10:00:32;;;;;;;9.93;9.02;;;28.20;99.90;;;;;;4978126;28;20194;-65
2021/07/26 10:02:58;;;;;;;10.98;9.88;;;28.50;99.90;;;;;;4978046;28;20260;-65
2021/07/26 10:05:31;;;;;;;10.98;9.93;;;28.40;99.90;;;;;;4978221;28;20174;-65
2021/07/26 10:08:00;;;;;;;10.80;9.80;;;28.30;99.90;;;;;;4978341;28;20216;-64
2021/07/26 10:10:26;;;;;;;9.93;9.05;;;28.60;99.90;;;;;;4978038;28;20178;-65
2021/07/26 10:12:52;;;;;;;9.27;8.38;;;28.60;99.90;;;;;;4976543;28;20658;-65
2021/07/26 10:15:19;;;;;;;8.40;7.47;;;28.90;99.90;;;;;;4978188;28;20522;-65
2021/07/26 10:17:46;;;;;;;7.97;7.28;;;29.00;99.90;;;;;;4977923;28;20170;-65
2021/07/26 10:20:17;;;;;;;8.60;7.75;;;29.10;99.90;;;;;;4978094;28;20185;-65
2021/07/26 10:22:48;;;;;;;7.70;7.00;;;29.20;99.90;;;;;;4977906;28;20280;-66
2021/07/26 10:25:19;;;;;;;7.70;7.00;;;29.20;99.90;;;;;;4977962;28;20570;-65
2021/07/26 10:27:46;;;;;;;8.00;7.22;;;29.40;99.90;;;;;;4977950;28;20217;-65
2021/07/26 10:30:33;;;;;;;7.65;6.95;;;29.50;99.90;;;;;;4977713;28;20248;-65
2021/07/26 10:33:00;;;;;;;8.32;7.63;;;29.50;99.90;;;;;;4977567;28;20205;-65
2021/07/26 10:35:50;;;;;;;7.07;6.50;;;29.70;99.90;;;;;;4977913;28;20166;-65
2021/07/26 10:38:53;;;;;;;8.30;7.50;;;29.80;99.90;;;;;;4977922;28;20558;-65
2021/07/26 10:41:43;;;;;;;7.80;7.10;;;29.50;99.90;;;;;;4978164;28;20177;-65
2021/07/26 10:44:09;;;;;;;9.30;7.07;;;29.50;99.90;;;;;;4976629;28;20218;-65
2021/07/26 10:47:06;;;;;;;6.82;6.22;;;29.40;99.90;;;;;;4977492;28;20181;-66
2021/07/26 10:49:35;;;;;;;6.57;6.03;;;29.70;99.90;;;;;;4977301;28;20178;-66
2021/07/26 10:52:00;;;;;;;6.97;6.30;;;29.90;99.90;;;;;;4977244;28;20170;-65
2021/07/26 10:54:36;;;;;;;6.60;6.10;;;29.90;99.90;;;;;;4977580;28;20221;-65
2021/07/26 10:57:12;;;;;;;6.88;6.30;;;30.00;99.90;;;;;;4977809;28;20631;-65
2021/07/26 11:00:22;;;;;;;8.07;7.28;;;30.00;99.90;;;;;;4991291;28;20189;-65
2021/07/26 11:02:49;;;;;;;7.30;6.53;;;29.90;99.90;;;;;;4977278;28;20264;-66
2021/07/26 11:05:26;;;;;;;9.75;8.75;;;29.70;99.90;;;;;;4977244;28;20593;-66
2021/07/26 11:08:14;;;;;;;9.27;8.32;;;29.60;99.90;;;;;;4977285;28;20261;-65
2021/07/26 11:10:52;;;;;;;9.50;8.52;;;29.10;99.90;;;;;;4977035;28;20201;-65
2021/07/26 11:13:19;;;;;;;9.98;9.10;;;28.60;99.90;;;;;;4976980;28;20680;-64
2021/07/26 11:15:45;;;;;;;8.82;8.02;;;28.20;99.90;;;;;;4977120;28;20181;-65
2021/07/26 11:18:46;;;;;;;9.27;8.43;;;28.00;99.90;;;;;;4976905;28;20189;-65
2021/07/26 11:21:18;;;;;;;8.85;8.05;;;28.30;99.90;;;;;;4917233;29;20581;-65
2021/07/26 11:23:47;;;;;;;9.93;8.98;;;28.60;99.90;;;;;;4917425;29;20231;-65
2021/07/26 11:26:18;;;;;;;9.32;8.50;;;28.50;99.90;;;;;;4917509;29;20168;-66
2021/07/26 11:28:44;;;;;;;8.68;7.82;;;28.70;99.90;;;;;;4901564;29;20192;-64
2021/07/26 11:31:11;;;;;;;7.60;6.80;;;28.80;99.90;;;;;;4916959;29;20223;-66
2021/07/26 11:33:36;;;;;;;7.70;6.47;;;29.00;99.90;;;;;;4917275;29;20568;-65
2021/07/26 11:36:07;;;;;;;8.02;7.32;;;29.10;99.90;;;;;;4917817;29;20664;-65
2021/07/26 11:39:00;;;;;;;6.80;6.20;;;29.20;99.90;;;;;;4917568;29;20244;-65
2021/07/26 11:41:26;;;;;;;6.80;6.20;;;28.90;99.90;;;;;;4916915;29;20274;-65
2021/07/26 11:43:52;;;;;;;7.47;6.78;;;29.00;99.90;;;;;;4917013;29;20278;-65
2021/07/26 11:46:22;;;;;;;8.15;7.45;;;29.20;99.90;;;;;;4916796;29;20585;-65
2021/07/26 11:48:55;;;;;;;9.00;7.43;;;29.10;99.90;;;;;;4916969;29;20192;-64
2021/07/26 11:51:40;;;;;;;8.18;7.47;;;28.50;99.90;;;;;;4916781;29;20207;-65
2021/07/26 11:54:07;;;;;;;8.48;7.53;;;28.30;99.90;;;;;;4921199;28;20200;-65
2021/07/26 11:56:34;;;;;;;8.00;7.20;;;28.20;99.90;;;;;;4976111;28;20206;-65
2021/07/26 11:59:22;;;;;;;8.00;7.20;;;28.40;99.90;;;;;;4976401;28;20294;-64
2021/07/26 12:01:57;;;;;;;7.28;6.50;;;28.50;99.90;;;;;;4976186;28;20175;-65
2021/07/26 12:04:27;;;;;;;7.00;6.40;;;28.60;99.90;;;;;;4976058;28;20213;-64
2021/07/26 12:06:55;;;;;;;8.23;6.85;;;28.90;99.90;;;;;;4976730;28;20174;-64
2021/07/26 12:09:22;;;;;;;7.75;7.05;;;28.70;99.90;;;;;;4976125;28;20178;-65
2021/07/26 12:11:47;;;;;;;7.20;6.50;;;28.70;99.90;;;;;;4975966;28;20257;-64
2021/07/26 12:14:26;;;;;;;7.03;6.32;;;28.80;99.90;;;;;;4975830;28;20272;-65
2021/07/26 12:17:22;;;;;;;7.47;6.88;;;29.00;99.90;;;;;;4976304;28;20197;-64
2021/07/26 12:20:00;;;;;;;7.03;6.38;;;28.80;99.90;;;;;;4976629;28;20169;-65
2021/07/26 12:22:25;;;;;;;7.03;6.43;;;28.50;99.90;;;;;;4975837;28;20178;-64
2021/07/26 12:24:59;;;;;;;6.82;6.10;;;28.40;99.90;;;;;;4975668;28;20189;-65
2021/07/26 12:27:28;;;;;;;6.63;6.07;;;28.40;99.90;;;;;;4975720;28;20511;-65
2021/07/26 12:30:10;;;;;;;7.05;6.38;;;28.40;99.90;;;;;;4976184;28;20205;-65
2021/07/26 12:32:52;;;;;;;7.30;6.70;;;28.30;99.90;;;;;;4975316;28;20906;-65
2021/07/26 12:35:18;;;;;;;7.00;5.60;;;28.40;99.90;;;;;;4975604;28;20174;-65
2021/07/26 12:38:05;;;;;;;6.57;5.53;;;28.60;99.90;;;;;;4975491;28;20594;-64
2021/07/26 12:40:32;;;;;;;6.40;5.80;;;29.00;99.90;;;;;;4976409;28;20182;-64
2021/07/26 12:43:14;;;;;;;7.03;6.25;;;29.30;99.90;;;;;;4975485;28;20241;-65
2021/07/26 12:45:44;;;;;;;6.57;5.93;;;29.30;99.90;;;;;;4975495;28;20182;-65